createdAt,value
2024-01-19T00:01:28.399Z,6.51
2024-01-19T00:03:58.002Z,6.42
2024-01-19T00:06:26.081Z,6.49
2024-01-19T00:08:54.208Z,6.46
2024-01-19T00:11:23.645Z,6.62
2024-01-19T00:13:51.668Z,6.46
2024-01-19T00:16:20.320Z,6.55
2024-01-19T00:18:48.916Z,6.53
2024-01-19T00:21:17.408Z,6.73
2024-01-19T00:23:45.676Z,6.83
2024-01-19T00:26:13.693Z,6.75
2024-01-19T00:28:43.112Z,6.73
2024-01-19T00:31:11.086Z,6.65
2024-01-19T00:33:39.019Z,6.85
2024-01-19T00:36:07.794Z,6.98
2024-01-19T00:38:35.847Z,6.98
2024-01-19T00:41:03.840Z,7.00
2024-01-19T00:43:31.797Z,7.10
2024-01-19T00:46:01.111Z,7.26
2024-01-19T00:48:29.200Z,7.23
2024-01-19T00:50:57.245Z,7.38
2024-01-19T00:53:25.212Z,7.47
2024-01-19T00:55:53.202Z,7.40
2024-01-19T00:58:21.187Z,7.30
2024-01-19T01:00:49.680Z,7.30
2024-01-19T01:03:25.489Z,7.17
2024-01-19T01:05:57.833Z,7.22
2024-01-19T01:08:27.070Z,7.42
2024-01-19T01:10:55.608Z,7.15
2024-01-19T01:13:23.655Z,7.24
2024-01-19T01:15:53.590Z,7.27
2024-01-19T01:18:22.527Z,7.26
2024-01-19T01:20:53.234Z,7.37
2024-01-19T01:23:21.869Z,7.09
2024-01-19T01:25:49.873Z,7.10
2024-01-19T01:28:17.864Z,6.63
2024-01-19T01:30:45.907Z,6.65
2024-01-19T01:33:14.115Z,6.78
2024-01-19T01:35:42.414Z,6.71
2024-01-19T01:38:11.795Z,6.82
2024-01-19T01:40:39.760Z,6.84
2024-01-19T01:43:08.429Z,6.82
2024-01-19T01:45:36.405Z,6.72
2024-01-19T01:48:05.305Z,6.62
2024-01-19T01:50:33.845Z,6.70
2024-01-19T01:53:02.850Z,6.71
2024-01-19T01:55:32.433Z,6.89
2024-01-19T01:58:00.635Z,6.83
2024-01-19T02:00:31.741Z,6.95
2024-01-19T02:03:02.469Z,6.70
2024-01-19T02:05:30.795Z,6.97
2024-01-19T02:07:58.993Z,6.84
2024-01-19T02:10:27.412Z,6.89
2024-01-19T02:12:57.740Z,6.89
2024-01-19T02:15:27.662Z,6.98
2024-01-19T02:17:56.037Z,6.78
2024-01-19T02:20:24.358Z,6.77
2024-01-19T02:22:55.024Z,6.74
2024-01-19T02:25:24.936Z,6.70
2024-01-19T02:27:53.473Z,6.62
2024-01-19T02:30:21.455Z,6.69
2024-01-19T02:32:49.607Z,6.65
2024-01-19T02:35:17.766Z,6.55
2024-01-19T02:37:45.762Z,6.54
2024-01-19T02:40:14.392Z,6.48
2024-01-19T02:42:43.687Z,6.62
2024-01-19T02:45:11.911Z,6.63
2024-01-19T02:47:39.898Z,6.51
2024-01-19T02:50:08.761Z,6.52
2024-01-19T02:52:36.713Z,6.52
2024-01-19T02:55:05.913Z,6.18
2024-01-19T02:57:33.891Z,6.34
2024-01-19T03:00:04.530Z,6.26
2024-01-19T03:02:32.577Z,6.47
2024-01-19T03:05:00.662Z,6.36
2024-01-19T03:07:28.660Z,6.34
2024-01-19T03:09:56.644Z,6.36
2024-01-19T03:12:24.766Z,6.44
2024-01-19T03:14:52.764Z,6.46
2024-01-19T03:17:22.299Z,6.19
2024-01-19T03:19:50.310Z,6.31
2024-01-19T03:22:18.329Z,6.43
2024-01-19T03:24:46.321Z,6.51
2024-01-19T03:27:15.679Z,6.46
2024-01-19T03:29:44.565Z,6.36
2024-01-19T03:32:12.542Z,6.15
2024-01-19T03:34:42.216Z,6.31
2024-01-19T03:37:10.190Z,6.38
2024-01-19T03:39:38.136Z,6.31
2024-01-19T03:42:06.177Z,6.35
2024-01-19T03:44:34.570Z,6.20
2024-01-19T03:47:02.748Z,6.33
2024-01-19T03:49:30.765Z,6.31
2024-01-19T03:52:01.281Z,6.35
2024-01-19T03:54:29.361Z,6.31
2024-01-19T03:56:59.635Z,6.16
2024-01-19T03:59:28.051Z,6.24
2024-01-19T04:01:56.435Z,6.11
2024-01-19T04:04:25.094Z,6.10
2024-01-19T04:06:53.880Z,6.03
2024-01-19T04:09:23.288Z,5.83
2024-01-19T04:11:51.301Z,5.98
2024-01-19T04:14:19.296Z,6.12
2024-01-19T04:16:47.279Z,5.97
2024-01-19T04:19:16.748Z,6.10
2024-01-19T04:21:44.708Z,5.95
2024-01-19T04:24:12.636Z,5.85
2024-01-19T04:26:41.997Z,5.82
2024-01-19T04:29:11.123Z,5.68
2024-01-19T04:31:39.354Z,5.86
2024-01-19T04:34:07.965Z,5.84
2024-01-19T04:36:35.989Z,5.91
2024-01-19T04:39:04.527Z,5.87
2024-01-19T04:41:34.171Z,5.89
2024-01-19T04:44:04.154Z,5.93
2024-01-19T04:46:32.403Z,5.89
2024-01-19T04:49:00.686Z,5.83
2024-01-19T04:51:28.834Z,5.80
2024-01-19T04:53:59.867Z,5.72
2024-01-19T04:56:28.377Z,5.63
2024-01-19T04:58:56.488Z,5.68
2024-01-19T05:01:25.929Z,5.55
2024-01-19T05:03:53.898Z,5.47
2024-01-19T05:06:22.121Z,5.51
2024-01-19T05:08:50.207Z,5.40
2024-01-19T05:11:18.257Z,5.38
2024-01-19T05:13:46.127Z,5.28
2024-01-19T05:16:15.092Z,5.34
2024-01-19T05:18:44.973Z,5.41
2024-01-19T05:21:12.893Z,5.31
2024-01-19T05:23:41.051Z,5.39
2024-01-19T05:26:10.104Z,5.17
2024-01-19T05:28:38.668Z,5.27
2024-01-19T05:31:06.668Z,5.18
2024-01-19T05:33:38.574Z,5.10
2024-01-19T05:36:09.635Z,5.32
2024-01-19T05:38:37.690Z,5.14
2024-01-19T05:41:06.099Z,4.54
2024-01-19T05:43:34.948Z,5.07
2024-01-19T05:46:02.959Z,5.13
2024-01-19T05:48:31.051Z,5.03
2024-01-19T05:50:59.182Z,5.22
2024-01-19T05:53:28.546Z,5.65
2024-01-19T05:55:56.660Z,5.88
2024-01-19T05:58:24.674Z,5.69
2024-01-19T06:00:52.797Z,5.65
2024-01-19T06:03:21.088Z,5.51
2024-01-19T06:05:49.324Z,5.40
2024-01-19T06:08:17.545Z,5.43
2024-01-19T06:10:46.954Z,5.19
2024-01-19T06:13:15.156Z,5.30
2024-01-19T06:15:43.218Z,4.90
2024-01-19T06:18:11.797Z,5.21
2024-01-19T06:20:42.943Z,5.27
2024-01-19T06:23:11.867Z,5.74
2024-01-19T06:25:41.068Z,5.68
2024-01-19T06:28:11.295Z,5.37
2024-01-19T06:30:39.634Z,5.57
2024-01-19T06:33:07.855Z,5.61
2024-01-19T06:35:36.814Z,5.30
2024-01-19T06:38:06.252Z,5.25
2024-01-19T06:40:35.253Z,5.02
2024-01-19T06:43:03.889Z,4.87
2024-01-19T06:45:33.271Z,4.94
2024-01-19T06:48:01.490Z,5.07
2024-01-19T06:50:29.552Z,5.08
2024-01-19T06:53:00.729Z,5.13
2024-01-19T06:55:29.291Z,5.31
2024-01-19T06:57:57.494Z,5.45
2024-01-19T07:00:25.775Z,5.78
2024-01-19T07:02:55.858Z,5.85
2024-01-19T07:05:24.552Z,6.07
2024-01-19T07:07:53.657Z,6.39
2024-01-19T07:10:22.542Z,6.63
2024-01-19T07:12:50.523Z,5.69
2024-01-19T07:15:18.481Z,6.58
2024-01-19T07:17:46.520Z,6.54
2024-01-19T07:20:16.108Z,6.45
2024-01-19T07:22:44.093Z,6.63
2024-01-19T07:25:12.103Z,6.68
2024-01-19T07:27:40.110Z,6.62
2024-01-19T07:30:09.046Z,7.13
2024-01-19T07:32:51.679Z,7.36
2024-01-19T07:35:27.701Z,7.72
2024-01-19T07:37:55.785Z,7.84
2024-01-19T07:40:24.155Z,7.98
2024-01-19T07:42:52.977Z,8.20
2024-01-19T07:45:20.986Z,8.31
2024-01-19T07:47:49.065Z,8.50
2024-01-19T07:50:17.252Z,8.70
2024-01-19T07:52:47.038Z,8.90
2024-01-19T07:55:15.171Z,8.94
2024-01-19T07:57:43.193Z,8.92
2024-01-19T08:00:11.997Z,9.12
2024-01-19T08:02:41.507Z,9.20
2024-01-19T08:05:10.088Z,9.17
2024-01-19T08:07:39.057Z,9.19
2024-01-19T08:10:09.584Z,9.54
2024-01-19T08:12:37.584Z,9.64
2024-01-19T08:15:06.699Z,9.87
2024-01-19T08:17:34.909Z,9.71
2024-01-19T08:20:02.925Z,9.90
2024-01-19T08:22:31.055Z,9.95
2024-01-19T08:24:59.776Z,10.00
2024-01-19T08:27:29.140Z,10.17
2024-01-19T08:29:57.170Z,10.20
2024-01-19T08:32:25.853Z,10.27
2024-01-19T08:34:54.046Z,10.42
2024-01-19T08:37:22.394Z,10.31
2024-01-19T08:39:50.349Z,10.52
2024-01-19T08:42:18.354Z,10.87
2024-01-19T08:44:47.772Z,10.80
2024-01-19T08:47:16.280Z,10.91
2024-01-19T08:49:44.398Z,11.31
2024-01-19T08:52:12.461Z,11.34
2024-01-19T08:54:40.743Z,11.49
2024-01-19T08:57:08.941Z,11.36
2024-01-19T08:59:36.981Z,11.93
2024-01-19T09:02:06.368Z,12.37
2024-01-19T09:04:35.784Z,12.39
2024-01-19T09:07:03.906Z,12.58
2024-01-19T09:09:32.064Z,12.66
2024-01-19T09:12:00.213Z,12.77
2024-01-19T09:14:28.720Z,13.14
2024-01-19T09:16:56.759Z,13.43
2024-01-19T09:19:26.190Z,14.13
2024-01-19T09:21:54.151Z,14.55
2024-01-19T09:24:22.278Z,14.41
2024-01-19T09:26:50.241Z,14.51
2024-01-19T09:29:18.170Z,14.41
2024-01-19T09:31:47.801Z,14.33
2024-01-19T09:34:16.652Z,14.49
2024-01-19T09:36:46.162Z,14.57
2024-01-19T09:39:14.132Z,13.93
2024-01-19T09:41:48.220Z,13.85
2024-01-19T09:44:19.616Z,13.96
2024-01-19T09:47:12.919Z,14.00
2024-01-19T09:49:47.934Z,14.42
2024-01-19T09:52:35.912Z,14.56
2024-01-19T09:55:03.981Z,14.55
2024-01-19T09:57:34.485Z,14.43
2024-01-19T10:00:02.822Z,13.94
2024-01-19T10:02:33.518Z,14.23
2024-01-19T10:05:01.662Z,14.01
2024-01-19T10:07:32.853Z,13.86
2024-01-19T10:10:00.868Z,13.81
2024-01-19T10:12:29.961Z,13.02
2024-01-19T10:14:57.965Z,12.69
2024-01-19T10:17:26.519Z,12.54
2024-01-19T10:19:54.759Z,12.84
2024-01-19T10:22:26.993Z,12.75
2024-01-19T10:25:03.789Z,12.44
2024-01-19T10:27:42.468Z,12.72
2024-01-19T10:30:12.780Z,12.82
2024-01-19T10:32:41.816Z,13.12
2024-01-19T10:35:11.513Z,13.41
2024-01-19T10:37:39.710Z,13.40
2024-01-19T10:40:20.005Z,13.43
2024-01-19T10:42:49.590Z,13.43
2024-01-19T10:45:19.883Z,13.16
2024-01-19T10:47:48.382Z,13.28
2024-01-19T10:50:17.432Z,13.41
2024-01-19T10:52:46.439Z,13.67
2024-01-19T10:55:23.392Z,13.74
2024-01-19T10:57:57.119Z,13.51
2024-01-19T11:00:27.232Z,13.34
2024-01-19T11:02:57.275Z,13.64
2024-01-19T11:05:26.456Z,13.68
2024-01-19T11:07:55.653Z,13.84
2024-01-19T11:10:26.521Z,13.88
2024-01-19T11:12:56.942Z,14.08
2024-01-19T11:15:30.570Z,14.22
2024-01-19T11:18:01.359Z,14.21
2024-01-19T11:20:32.735Z,14.15
2024-01-19T11:23:02.235Z,14.30
2024-01-19T11:25:46.163Z,14.43
2024-01-19T11:28:21.162Z,14.69
2024-01-19T11:31:12.121Z,14.64
2024-01-19T11:33:40.224Z,14.76
2024-01-19T11:36:09.039Z,14.95
2024-01-19T11:38:45.826Z,14.91
2024-01-19T11:41:46.191Z,14.87
2024-01-19T11:44:45.413Z,15.11
2024-01-19T11:47:45.095Z,15.22
2024-01-19T11:50:14.799Z,15.42
2024-01-19T11:52:47.054Z,15.46
2024-01-19T11:55:36.442Z,15.43
2024-01-19T11:58:44.084Z,15.43
2024-01-19T12:01:14.765Z,15.24
2024-01-19T12:03:43.682Z,15.29
2024-01-19T12:06:12.506Z,15.13
2024-01-19T12:08:42.307Z,15.25
2024-01-19T12:11:12.014Z,15.11
2024-01-19T12:13:48.500Z,15.30
2024-01-19T12:16:24.163Z,15.41
2024-01-19T12:18:56.925Z,15.55
2024-01-19T12:21:25.725Z,15.64
2024-01-19T12:24:00.072Z,15.35
2024-01-19T12:26:28.431Z,15.54
2024-01-19T12:28:57.849Z,15.72
2024-01-19T12:31:31.666Z,15.85
2024-01-19T12:34:12.524Z,16.09
2024-01-19T12:36:40.911Z,16.21
2024-01-19T12:39:12.673Z,16.39
2024-01-19T12:41:41.576Z,16.39
2024-01-19T12:44:09.640Z,16.39
2024-01-19T12:46:40.115Z,16.52
2024-01-19T12:49:08.199Z,16.46
2024-01-19T12:51:36.195Z,16.44
2024-01-19T12:54:04.227Z,16.45
2024-01-19T12:56:33.984Z,16.27
2024-01-19T12:59:09.076Z,16.23
2024-01-19T13:01:41.272Z,16.38
2024-01-19T13:04:09.427Z,16.57
2024-01-19T13:06:41.791Z,16.67
2024-01-19T13:09:10.499Z,16.69
2024-01-19T13:11:38.546Z,16.42
2024-01-19T13:14:07.260Z,16.51
2024-01-19T13:16:53.827Z,16.48
2024-01-19T13:19:23.848Z,16.32
2024-01-19T13:21:52.664Z,16.47
2024-01-19T13:24:20.739Z,16.51
2024-01-19T13:26:59.990Z,16.59
2024-01-19T13:29:28.123Z,16.50
2024-01-19T13:31:56.424Z,16.25
2024-01-19T13:34:29.005Z,16.27
2024-01-19T13:36:57.471Z,16.14
2024-01-19T13:39:25.463Z,16.13
2024-01-19T13:41:53.525Z,16.27
2024-01-19T13:44:21.587Z,16.25
2024-01-19T13:46:49.565Z,16.28
2024-01-19T13:49:17.654Z,16.39
2024-01-19T13:51:47.044Z,16.36
2024-01-19T13:54:15.025Z,16.43
2024-01-19T13:56:43.701Z,16.38
2024-01-19T13:59:11.703Z,16.24
2024-01-19T14:01:39.846Z,16.20
2024-01-19T14:04:07.858Z,16.11
2024-01-19T14:06:36.012Z,16.06
2024-01-19T14:09:06.085Z,16.08
2024-01-19T14:11:34.305Z,15.99
2024-01-19T14:14:03.252Z,15.90
2024-01-19T14:16:31.301Z,15.70
2024-01-19T14:18:59.321Z,15.81
2024-01-19T14:21:27.368Z,15.70
2024-01-19T14:23:55.260Z,15.62
2024-01-19T14:26:24.945Z,15.56
2024-01-19T14:28:53.246Z,15.43
2024-01-19T14:31:21.267Z,15.43
2024-01-19T14:33:49.379Z,15.41
2024-01-19T14:36:17.927Z,15.35
2024-01-19T14:38:45.819Z,15.47
2024-01-19T14:41:13.811Z,15.47
2024-01-19T14:43:45.502Z,15.50
2024-01-19T14:46:15.945Z,15.43
2024-01-19T14:48:44.391Z,15.27
2024-01-19T14:51:13.262Z,15.34
2024-01-19T14:53:43.243Z,15.23
2024-01-19T14:56:11.573Z,15.18
2024-01-19T14:58:39.537Z,15.09
2024-01-19T15:01:08.908Z,15.05
2024-01-19T15:03:36.878Z,14.78
2024-01-19T15:06:05.266Z,14.96
2024-01-19T15:08:33.305Z,14.95
2024-01-19T15:11:01.316Z,14.81
2024-01-19T15:13:29.375Z,14.64
2024-01-19T15:15:57.337Z,14.53
2024-01-19T15:18:28.315Z,14.33
2024-01-19T15:20:58.027Z,14.25
2024-01-19T15:23:25.947Z,14.24
2024-01-19T15:25:53.983Z,14.06
2024-01-19T15:28:21.953Z,14.07
2024-01-19T15:30:49.882Z,14.10
2024-01-19T15:33:18.341Z,14.06
2024-01-19T15:35:47.985Z,13.96
2024-01-19T15:38:16.005Z,13.82
2024-01-19T15:40:43.984Z,13.58
2024-01-19T15:43:11.954Z,13.62
2024-01-19T15:45:39.870Z,13.50
2024-01-19T15:48:08.499Z,13.22
2024-01-19T15:50:36.487Z,13.33
2024-01-19T15:53:09.096Z,13.24
2024-01-19T15:55:37.417Z,13.24
2024-01-19T15:58:05.568Z,13.21
2024-01-19T16:00:33.578Z,13.21
2024-01-19T16:03:01.617Z,13.12
2024-01-19T16:05:29.717Z,13.07
2024-01-19T16:07:57.736Z,12.95
2024-01-19T16:10:27.118Z,12.91
2024-01-19T16:12:55.044Z,12.85
2024-01-19T16:15:22.940Z,12.81
2024-01-19T16:17:51.128Z,12.77
2024-01-19T16:20:19.291Z,12.78
2024-01-19T16:22:47.244Z,12.76
2024-01-19T16:25:15.182Z,12.72
2024-01-19T16:27:44.606Z,12.63
2024-01-19T16:30:13.945Z,12.64
2024-01-19T16:32:45.877Z,12.76
2024-01-19T16:35:19.055Z,12.70
2024-01-19T16:37:52.254Z,12.51
2024-01-19T16:40:20.160Z,12.42
2024-01-19T16:42:49.420Z,12.40
2024-01-19T16:45:18.108Z,12.40
2024-01-19T16:47:46.465Z,12.48
2024-01-19T16:50:14.793Z,12.42
2024-01-19T16:52:42.746Z,12.47
2024-01-19T16:55:11.061Z,12.27
2024-01-19T16:57:38.943Z,12.05
2024-01-19T17:00:09.701Z,11.92
2024-01-19T17:02:37.654Z,12.02
2024-01-19T17:05:05.992Z,12.06
2024-01-19T17:07:36.500Z,11.94
2024-01-19T17:10:06.636Z,11.95
2024-01-19T17:12:34.529Z,12.11
2024-01-19T17:15:02.772Z,11.80
2024-01-19T17:17:32.105Z,12.09
2024-01-19T17:20:00.086Z,11.81
2024-01-19T17:22:29.964Z,11.64
2024-01-19T17:24:58.037Z,11.64
2024-01-19T17:27:26.086Z,11.49
2024-01-19T17:29:54.856Z,11.48
2024-01-19T17:32:22.917Z,11.52
2024-01-19T17:34:52.681Z,11.41
2024-01-19T17:37:20.846Z,11.23
2024-01-19T17:39:48.923Z,11.41
2024-01-19T17:42:17.186Z,11.42
2024-01-19T17:44:45.455Z,11.32
2024-01-19T17:47:13.437Z,11.46
2024-01-19T17:49:41.537Z,11.35
2024-01-19T17:52:11.854Z,11.27
2024-01-19T17:54:39.892Z,11.22
2024-01-19T17:57:07.936Z,11.09
2024-01-19T17:59:35.843Z,10.91
2024-01-19T18:02:03.796Z,10.97
2024-01-19T18:04:31.800Z,11.03
2024-01-19T18:06:59.853Z,10.87
2024-01-19T18:09:29.396Z,10.74
2024-01-19T18:11:57.549Z,10.80
2024-01-19T18:14:27.626Z,10.79
2024-01-19T18:16:55.663Z,10.77
2024-01-19T18:19:23.994Z,10.52
2024-01-19T18:21:54.093Z,10.26
2024-01-19T18:24:22.129Z,10.69
2024-01-19T18:26:52.967Z,10.58
2024-01-19T18:29:23.401Z,10.46
2024-01-19T18:31:51.461Z,10.50
2024-01-19T18:34:19.791Z,10.44
2024-01-19T18:36:47.865Z,10.12
2024-01-19T18:39:16.102Z,9.90
2024-01-19T18:41:44.006Z,10.39
2024-01-19T18:44:13.491Z,10.25
2024-01-19T18:46:46.384Z,10.17
2024-01-19T18:49:14.628Z,10.11
2024-01-19T18:51:42.739Z,10.17
2024-01-19T18:54:10.744Z,9.93
2024-01-19T18:56:39.727Z,9.82
2024-01-19T18:59:07.926Z,9.86
2024-01-19T19:01:38.100Z,9.08
2024-01-19T19:04:07.524Z,9.75
2024-01-19T19:06:36.751Z,9.75
2024-01-19T19:09:04.953Z,9.76
2024-01-19T19:11:33.696Z,9.53
2024-01-19T19:14:02.403Z,9.49
2024-01-19T19:16:37.134Z,9.38
2024-01-19T19:19:15.248Z,9.22
2024-01-19T19:21:43.294Z,9.00
2024-01-19T19:24:11.200Z,9.07
2024-01-19T19:26:39.353Z,9.19
2024-01-19T19:29:07.788Z,9.18
2024-01-19T19:31:35.887Z,9.15
2024-01-19T19:34:04.513Z,9.17
2024-01-19T19:36:34.319Z,9.21
2024-01-19T19:39:05.147Z,9.25
2024-01-19T19:41:33.461Z,9.28
2024-01-19T19:44:01.543Z,9.25
2024-01-19T19:46:29.490Z,9.34
2024-01-19T19:48:58.298Z,9.26
2024-01-19T19:51:28.226Z,9.15
2024-01-19T19:53:57.615Z,9.12
2024-01-19T19:56:25.588Z,9.12
2024-01-19T19:58:53.649Z,8.99
2024-01-19T20:01:22.584Z,9.05
2024-01-19T20:03:50.564Z,9.13
2024-01-19T20:06:24.058Z,9.18
2024-01-19T20:08:52.846Z,9.02
2024-01-19T20:11:23.123Z,9.06
2024-01-19T20:13:51.633Z,9.01
2024-01-19T20:16:19.804Z,9.03
2024-01-19T20:18:48.617Z,8.99
2024-01-19T20:21:16.785Z,8.80
2024-01-19T20:23:44.987Z,8.78
2024-01-19T20:26:16.474Z,8.69
2024-01-19T20:28:46.392Z,8.71
2024-01-19T20:31:15.258Z,8.65
2024-01-19T20:33:43.989Z,8.62
2024-01-19T20:36:12.538Z,8.69
2024-01-19T20:38:40.946Z,8.63
2024-01-19T20:41:11.525Z,8.50
2024-01-19T20:43:40.082Z,8.34
2024-01-19T20:46:10.069Z,8.49
2024-01-19T20:48:38.536Z,8.44
2024-01-19T20:51:08.239Z,8.51
2024-01-19T20:53:36.694Z,8.51
2024-01-19T20:56:05.482Z,8.49
2024-01-19T20:58:34.164Z,8.53
2024-01-19T21:01:02.911Z,8.44
2024-01-19T21:03:32.798Z,8.39
2024-01-19T21:06:00.966Z,8.29
2024-01-19T21:08:29.251Z,8.16
2024-01-19T21:10:59.904Z,8.32
2024-01-19T21:13:31.053Z,8.26
2024-01-19T21:15:59.845Z,8.16
2024-01-19T21:18:28.008Z,8.17
2024-01-19T21:20:58.781Z,7.63
2024-01-19T21:23:27.506Z,8.28
2024-01-19T21:25:55.530Z,8.26
2024-01-19T21:28:23.520Z,8.20
2024-01-19T21:30:51.419Z,8.18
2024-01-19T21:33:19.348Z,8.24
2024-01-19T21:35:47.602Z,8.14
2024-01-19T21:38:18.281Z,8.08
2024-01-19T21:40:46.983Z,8.12
2024-01-19T21:43:15.945Z,7.38
2024-01-19T21:45:44.270Z,8.27
2024-01-19T21:48:12.790Z,8.20
2024-01-19T21:50:41.243Z,8.20
2024-01-19T21:53:09.762Z,8.13
2024-01-19T21:55:39.251Z,8.12
2024-01-19T21:58:07.313Z,8.07
2024-01-19T22:00:35.268Z,7.99
2024-01-19T22:03:03.524Z,7.88
2024-01-19T22:05:31.626Z,7.82
2024-01-19T22:07:59.799Z,7.73
2024-01-19T22:10:27.757Z,7.55
2024-01-19T22:12:57.037Z,7.44
2024-01-19T22:15:25.005Z,7.36
2024-01-19T22:17:52.940Z,7.30
2024-01-19T22:20:20.946Z,7.29
2024-01-19T22:22:48.875Z,7.19
2024-01-19T22:25:16.991Z,7.34
2024-01-19T22:27:45.371Z,7.30
2024-01-19T22:30:15.547Z,7.19
2024-01-19T22:32:44.011Z,7.13
2024-01-19T22:35:12.202Z,7.15
2024-01-19T22:37:40.224Z,7.16
2024-01-19T22:40:10.221Z,7.26
2024-01-19T22:42:38.516Z,7.29
2024-01-19T22:45:07.334Z,7.30
2024-01-19T22:47:36.649Z,7.27
2024-01-19T22:50:05.745Z,7.24
2024-01-19T22:52:33.989Z,7.17
2024-01-19T22:55:02.016Z,7.15
2024-01-19T22:57:30.204Z,7.16
2024-01-19T22:59:58.102Z,7.12
2024-01-19T23:02:26.955Z,7.12
2024-01-19T23:04:56.330Z,7.11
2024-01-19T23:07:24.727Z,7.08
2024-01-19T23:09:52.665Z,6.96
2024-01-19T23:12:20.531Z,6.98
2024-01-19T23:14:48.453Z,7.04
2024-01-19T23:17:15.542Z,7.13
2024-01-19T23:19:43.678Z,7.13
2024-01-19T23:22:13.032Z,7.14
2024-01-19T23:24:40.965Z,7.06
2024-01-19T23:27:09.183Z,7.09
2024-01-19T23:29:37.190Z,7.18
2024-01-19T23:32:08.229Z,7.13
2024-01-19T23:34:36.855Z,7.22
2024-01-19T23:37:05.230Z,7.24
2024-01-19T23:39:35.532Z,7.28
2024-01-19T23:42:03.759Z,7.36
2024-01-19T23:44:31.754Z,7.24
2024-01-19T23:46:59.717Z,7.40
2024-01-19T23:49:29.329Z,7.31
2024-01-19T23:51:59.557Z,7.28
2024-01-19T23:54:27.457Z,7.35
2024-01-19T23:56:56.694Z,7.41
2024-01-19T23:59:24.653Z,7.37
